Time;durP1;ratioP1;P1;durP2;ratioP2;P2;SDS_P1;SDS_P2;PMS_P1;PMS_P2;Temp;Humidity;BMP_temperature;BMP_pressure;BME280_temperature;BME280_humidity;BME280_pressure;Samples;Min_cycle;Max_cycle;Signal;HPM_P1;HPM_P2
2024/01/11 00:02:45;;;;;;;22.10;13.65;;;;;;;;;;10289058;28;20506;-60
2024/01/11 00:07:43;;;;;;;33.80;23.00;;;;;;;;;;10287650;28;20067;-61
2024/01/11 00:12:41;;;;;;;19.90;13.23;;;;;;;;;;10289158;28;20080;-61
2024/01/11 00:17:41;;;;;;;27.15;18.25;;;;;;;;;;10288296;28;20491;-61
2024/01/11 00:22:40;;;;;;;17.98;14.50;;;;;;;;;;10288130;28;20513;-60
2024/01/11 00:27:38;;;;;;;44.33;22.45;;;;;;;;;;10285960;28;20181;-61
2024/01/11 00:32:36;;;;;;;31.65;21.58;;;;;;;;;;10286334;28;20095;-61
2024/01/11 00:37:36;;;;;;;23.52;15.35;;;;;;;;;;10287482;28;20073;-61
2024/01/11 00:42:35;;;;;;;32.65;19.02;;;;;;;;;;10286902;28;20072;-61
2024/01/11 00:47:33;;;;;;;16.10;12.65;;;;;;;;;;10286836;28;20071;-61
2024/01/11 00:52:32;;;;;;;18.73;13.95;;;;;;;;;;10284918;28;20568;-62
2024/01/11 00:57:31;;;;;;;19.13;13.32;;;;;;;;;;10286643;28;20080;-61
2024/01/11 01:02:29;;;;;;;19.33;13.45;;;;;;;;;;10284962;28;20060;-62
2024/01/11 01:07:28;;;;;;;17.08;12.38;;;;;;;;;;10287493;28;20067;-62
2024/01/11 01:12:26;;;;;;;18.80;12.50;;;;;;;;;;10285862;28;20091;-62
2024/01/11 01:17:26;;;;;;;24.85;16.08;;;;;;;;;;10284910;28;20075;-62
2024/01/11 01:22:24;;;;;;;22.88;13.45;;;;;;;;;;10286563;28;20068;-61
2024/01/11 01:27:22;;;;;;;15.82;11.60;;;;;;;;;;10285514;28;20498;-61
2024/01/11 01:32:21;;;;;;;13.77;11.13;;;;;;;;;;10285281;28;20084;-61
2024/01/11 01:37:21;;;;;;;16.20;12.15;;;;;;;;;;10285866;28;20463;-61
2024/01/11 01:42:19;;;;;;;18.52;11.60;;;;;;;;;;10284863;28;20076;-61
2024/01/11 01:47:18;;;;;;;16.55;12.75;;;;;;;;;;10286472;28;20470;-61
2024/01/11 01:52:17;;;;;;;16.35;11.23;;;;;;;;;;10285555;28;20071;-60
2024/01/11 01:57:17;;;;;;;20.10;13.27;;;;;;;;;;10285290;28;20065;-60
2024/01/11 02:02:16;;;;;;;16.23;12.27;;;;;;;;;;10285441;28;20068;-61
2024/01/11 02:07:19;;;;;;;19.90;12.25;;;;;;;;;;10290091;28;20073;-61
2024/01/11 02:12:19;;;;;;;14.45;11.60;;;;;;;;;;10293111;28;20076;-61
2024/01/11 02:17:17;;;;;;;27.65;15.98;;;;;;;;;;10293087;28;20072;-61
2024/01/11 02:22:19;;;;;;;18.80;12.25;;;;;;;;;;10291909;28;20552;-61
2024/01/11 02:48:30;;;;;;;19.27;14.82;;;;;;;;;;10283250;28;20390;-61
2024/01/11 02:53:33;;;;;;;14.40;11.55;;;;;;;;;;10278040;28;20064;-61
2024/01/11 02:58:32;;;;;;;19.25;12.63;;;;;;;;;;10281551;28;20087;-61
2024/01/11 03:03:59;;;;;;;16.80;13.18;;;;;;;;;;10279991;28;20070;-61
2024/01/11 03:08:58;;;;;;;16.50;13.73;;;;;;;;;;10277207;28;20076;-61
2024/01/11 03:13:57;;;;;;;17.27;13.38;;;;;;;;;;10276280;28;20084;-61
2024/01/11 03:18:55;;;;;;;16.27;12.13;;;;;;;;;;10280410;28;20060;-61
2024/01/11 03:23:54;;;;;;;14.90;12.13;;;;;;;;;;10273911;28;20069;-61
2024/01/11 03:28:53;;;;;;;17.20;13.85;;;;;;;;;;10277296;28;20465;-61
2024/01/11 03:33:52;;;;;;;21.02;13.75;;;;;;;;;;10279749;28;20072;-61
2024/01/11 03:38:50;;;;;;;21.35;14.90;;;;;;;;;;10278847;28;20122;-62
2024/01/11 03:43:50;;;;;;;19.42;14.38;;;;;;;;;;10274442;28;20080;-61
2024/01/11 03:48:50;;;;;;;17.38;12.15;;;;;;;;;;10254480;28;20077;-61
2024/01/11 03:53:48;;;;;;;17.13;13.30;;;;;;;;;;10251578;28;20561;-62
2024/01/11 03:58:47;;;;;;;15.57;11.57;;;;;;;;;;10252201;28;20069;-61
2024/01/11 04:03:45;;;;;;;22.08;17.02;;;;;;;;;;10254408;28;20077;-61
2024/01/11 04:08:45;;;;;;;15.60;11.85;;;;;;;;;;10251844;28;20072;-61
2024/01/11 04:13:44;;;;;;;16.92;12.70;;;;;;;;;;10251949;28;20081;-61
2024/01/11 04:18:42;;;;;;;16.23;11.85;;;;;;;;;;10249215;28;20087;-61
2024/01/11 04:23:41;;;;;;;15.13;12.02;;;;;;;;;;10251294;28;20084;-61
2024/01/11 04:28:40;;;;;;;15.98;12.40;;;;;;;;;;10247487;28;20041;-50
2024/01/11 04:33:40;;;;;;;12.73;10.82;;;;;;;;;;10247857;28;20518;-50
2024/01/11 04:38:39;;;;;;;16.08;11.50;;;;;;;;;;10245978;28;20083;-54
2024/01/11 04:43:38;;;;;;;24.48;18.65;;;;;;;;;;10250524;28;20076;-49
2024/01/11 04:48:37;;;;;;;22.33;17.67;;;;;;;;;;10246408;28;20073;-50
2024/01/11 04:53:37;;;;;;;21.30;14.43;;;;;;;;;;10246437;28;20095;-52
2024/01/11 04:58:36;;;;;;;23.92;21.33;;;;;;;;;;10248376;28;20089;-52
2024/01/11 05:03:34;;;;;;;18.65;16.27;;;;;;;;;;10244637;28;20079;-51
2024/01/11 05:08:34;;;;;;;22.60;19.27;;;;;;;;;;10249002;28;20069;-50
2024/01/11 05:13:32;;;;;;;21.58;16.30;;;;;;;;;;10248748;28;20455;-52
2024/01/11 05:18:31;;;;;;;16.67;12.13;;;;;;;;;;10246610;28;20081;-51
2024/01/11 05:23:33;;;;;;;18.05;13.57;;;;;;;;;;10248525;28;20065;-54
2024/01/11 05:28:31;;;;;;;24.40;16.08;;;;;;;;;;10247199;28;20064;-53
2024/01/11 05:33:31;;;;;;;18.70;14.15;;;;;;;;;;10246675;28;20158;-52
2024/01/11 05:38:29;;;;;;;16.92;12.05;;;;;;;;;;10248926;28;20076;-52
2024/01/11 05:43:29;;;;;;;26.85;16.55;;;;;;;;;;10249070;28;20068;-50
2024/01/11 05:48:27;;;;;;;17.98;13.30;;;;;;;;;;10242959;28;20077;-53
2024/01/11 05:53:27;;;;;;;30.92;19.80;;;;;;;;;;10243966;28;20832;-51
2024/01/11 05:58:25;;;;;;;22.60;16.30;;;;;;;;;;10241359;28;20494;-51
2024/01/11 06:03:25;;;;;;;20.05;14.90;;;;;;;;;;10240243;28;20076;-52
2024/01/11 06:08:23;;;;;;;33.65;24.60;;;;;;;;;;10243933;28;20107;-51
2024/01/11 06:13:22;;;;;;;21.38;14.70;;;;;;;;;;10250194;28;20057;-52
2024/01/11 06:18:20;;;;;;;20.83;16.00;;;;;;;;;;10246659;28;20068;-54
2024/01/11 06:23:20;;;;;;;19.73;14.65;;;;;;;;;;10247714;28;20103;-52
2024/01/11 06:28:18;;;;;;;21.40;15.95;;;;;;;;;;10242472;28;20087;-53
2024/01/11 06:33:16;;;;;;;23.77;16.00;;;;;;;;;;10245172;28;20130;-52
2024/01/11 06:38:15;;;;;;;29.65;18.25;;;;;;;;;;10245618;28;20076;-54
2024/01/11 06:43:15;;;;;;;38.13;23.15;;;;;;;;;;10245355;28;20081;-49
2024/01/11 06:48:13;;;;;;;34.58;21.90;;;;;;;;;;10248483;28;20226;-52
2024/01/11 06:53:12;;;;;;;29.00;20.98;;;;;;;;;;10246107;28;20465;-54
2024/01/11 06:58:10;;;;;;;58.00;32.65;;;;;;;;;;10245853;28;20080;-54
2024/01/11 07:03:10;;;;;;;33.45;21.67;;;;;;;;;;10244961;28;20530;-49
2024/01/11 07:08:08;;;;;;;41.05;27.15;;;;;;;;;;10244698;28;20525;-53
2024/01/11 07:13:07;;;;;;;41.90;27.27;;;;;;;;;;10244529;28;20088;-55
2024/01/11 07:18:05;;;;;;;38.30;27.50;;;;;;;;;;10246695;28;20092;-54
2024/01/11 07:23:05;;;;;;;46.63;31.38;;;;;;;;;;10251272;28;20073;-54
2024/01/11 07:28:04;;;;;;;60.55;34.67;;;;;;;;;;10252043;28;20089;-50
2024/01/11 07:33:02;;;;;;;47.55;29.92;;;;;;;;;;10248971;28;20081;-52
2024/01/11 07:38:01;;;;;;;53.70;34.92;;;;;;;;;;10247048;28;20080;-53
2024/01/11 07:43:00;;;;;;;45.55;29.40;;;;;;;;;;10244071;28;20072;-52
2024/01/11 07:47:59;;;;;;;44.63;30.95;;;;;;;;;;10245651;28;20088;-53
2024/01/11 07:52:58;;;;;;;46.70;32.60;;;;;;;;;;10252341;28;20069;-55
2024/01/11 07:57:56;;;;;;;34.35;26.10;;;;;;;;;;10246572;28;20508;-53
2024/01/11 08:02:56;;;;;;;28.92;21.95;;;;;;;;;;10246189;28;20071;-53
2024/01/11 08:07:54;;;;;;;37.72;22.48;;;;;;;;;;10245825;28;20072;-51
2024/01/11 08:12:52;;;;;;;23.85;18.35;;;;;;;;;;10245616;28;20079;-52
2024/01/11 08:17:51;;;;;;;31.45;21.10;;;;;;;;;;10249349;28;20077;-53
2024/01/11 08:22:50;;;;;;;39.50;23.25;;;;;;;;;;10247827;28;20080;-52
2024/01/11 08:27:49;;;;;;;36.13;23.52;;;;;;;;;;10246640;28;20584;-53
2024/01/11 08:32:47;;;;;;;37.00;22.48;;;;;;;;;;10246162;28;20077;-53
2024/01/11 08:37:45;;;;;;;49.95;27.27;;;;;;;;;;10243858;28;20080;-54
2024/01/11 08:42:45;;;;;;;63.65;32.97;;;;;;;;;;10247246;28;20076;-54
2024/01/11 08:47:43;;;;;;;69.45;33.65;;;;;;;;;;10245840;28;20492;-54
2024/01/11 08:52:42;;;;;;;36.13;20.45;;;;;;;;;;10245082;28;20075;-51
2024/01/11 08:57:41;;;;;;;32.33;19.73;;;;;;;;;;10248260;28;20080;-53
2024/01/11 09:02:41;;;;;;;35.83;23.13;;;;;;;;;;10228184;28;20058;-50
2024/01/11 09:07:39;;;;;;;30.73;21.00;;;;;;;;;;10247628;28;20095;-53
2024/01/11 09:12:37;;;;;;;49.53;32.95;;;;;;;;;;10242854;28;20072;-53
2024/01/11 09:17:36;;;;;;;26.77;19.65;;;;;;;;;;10247721;28;20537;-51
2024/01/11 09:22:36;;;;;;;23.63;16.83;;;;;;;;;;10248803;28;20506;-49
2024/01/11 09:27:35;;;;;;;20.65;17.02;;;;;;;;;;10248817;28;20073;-54
2024/01/11 09:32:33;;;;;;;22.40;16.67;;;;;;;;;;10250155;28;20073;-53
2024/01/11 09:37:32;;;;;;;22.00;16.77;;;;;;;;;;10249417;28;20076;-50
2024/01/11 09:42:31;;;;;;;26.90;16.63;;;;;;;;;;10242789;28;20081;-53
2024/01/11 09:47:30;;;;;;;19.20;14.48;;;;;;;;;;10249063;28;20164;-53
2024/01/11 09:52:31;;;;;;;23.48;16.95;;;;;;;;;;10249487;28;20079;-48
2024/01/11 09:57:33;;;;;;;29.45;19.55;;;;;;;;;;10249574;28;20081;-53
2024/01/11 10:02:31;;;;;;;28.70;19.75;;;;;;;;;;10242192;28;20083;-53
2024/01/11 10:07:31;;;;;;;24.90;16.63;;;;;;;;;;10246716;28;20065;-52
2024/01/11 10:12:29;;;;;;;27.35;17.05;;;;;;;;;;10245318;28;20073;-53
2024/01/11 10:17:29;;;;;;;24.90;17.63;;;;;;;;;;10245630;28;20080;-49
2024/01/11 10:22:28;;;;;;;20.73;14.18;;;;;;;;;;10244912;28;20092;-52
2024/01/11 10:27:27;;;;;;;23.95;19.02;;;;;;;;;;10246801;28;20076;-51
2024/01/11 10:32:29;;;;;;;22.05;15.05;;;;;;;;;;10244283;28;20080;-50
2024/01/11 10:37:29;;;;;;;24.95;18.17;;;;;;;;;;10238290;28;20161;-51
2024/01/11 10:42:28;;;;;;;23.80;17.67;;;;;;;;;;10233543;28;20073;-54
2024/01/11 10:47:31;;;;;;;16.73;13.13;;;;;;;;;;10230889;28;20077;-52
2024/01/11 10:52:37;;;;;;;20.25;15.93;;;;;;;;;;10230072;28;20065;-52
2024/01/11 10:57:36;;;;;;;29.17;18.00;;;;;;;;;;10241257;28;20530;-54
2024/01/11 11:02:35;;;;;;;27.30;18.73;;;;;;;;;;10254709;28;20474;-54
2024/01/11 11:07:36;;;;;;;26.17;20.70;;;;;;;;;;10250661;28;20081;-54
2024/01/11 11:12:35;;;;;;;28.25;18.02;;;;;;;;;;10254037;28;20068;-53
2024/01/11 11:17:33;;;;;;;22.02;14.82;;;;;;;;;;10254466;28;20087;-55
2024/01/11 11:22:35;;;;;;;23.15;15.80;;;;;;;;;;10254287;28;20202;-54
2024/01/11 11:27:34;;;;;;;21.48;13.13;;;;;;;;;;10249159;28;20506;-55
2024/01/11 11:32:38;;;;;;;19.08;13.63;;;;;;;;;;10253257;28;20073;-55
2024/01/11 11:37:38;;;;;;;16.17;12.52;;;;;;;;;;10254351;28;20091;-53
2024/01/11 11:42:38;;;;;;;28.27;16.17;;;;;;;;;;10254180;28;20069;-54
2024/01/11 11:47:38;;;;;;;20.20;14.35;;;;;;;;;;10253854;28;20471;-54
2024/01/11 11:52:39;;;;;;;19.45;15.18;;;;;;;;;;10252490;28;20494;-53
2024/01/11 11:57:37;;;;;;;22.10;14.50;;;;;;;;;;10248305;28;20106;-50
2024/01/11 12:02:36;;;;;;;19.63;13.27;;;;;;;;;;10251785;28;20080;-53
2024/01/11 12:07:35;;;;;;;17.65;15.63;;;;;;;;;;10253793;28;20069;-52
2024/01/11 12:12:35;;;;;;;21.48;16.15;;;;;;;;;;10251416;28;20089;-54
2024/01/11 12:17:33;;;;;;;27.10;16.40;;;;;;;;;;10251707;28;20087;-55
2024/01/11 12:22:31;;;;;;;33.45;16.63;;;;;;;;;;10250732;28;20081;-54
2024/01/11 12:27:31;;;;;;;19.88;13.43;;;;;;;;;;10250573;28;20073;-53
2024/01/11 12:32:30;;;;;;;16.52;12.95;;;;;;;;;;10251137;28;20064;-52
2024/01/11 12:37:31;;;;;;;19.85;14.10;;;;;;;;;;10248071;28;20531;-53
2024/01/11 12:42:29;;;;;;;41.03;23.17;;;;;;;;;;10248980;28;20120;-49
2024/01/11 12:47:27;;;;;;;33.85;22.83;;;;;;;;;;10250245;28;20115;-52
2024/01/11 12:52:30;;;;;;;23.80;16.77;;;;;;;;;;10245888;28;20069;-53
2024/01/11 12:57:28;;;;;;;28.15;18.45;;;;;;;;;;10243817;28;20081;-53
2024/01/11 13:02:27;;;;;;;27.73;20.25;;;;;;;;;;10240711;28;20065;-52
2024/01/11 13:07:27;;;;;;;20.00;16.98;;;;;;;;;;10242876;28;20072;-54
2024/01/11 13:12:25;;;;;;;26.95;20.20;;;;;;;;;;10251308;28;20076;-52
2024/01/11 13:17:24;;;;;;;30.70;26.02;;;;;;;;;;10243851;28;20092;-54
2024/01/11 13:22:23;;;;;;;36.70;27.13;;;;;;;;;;10247090;28;20058;-54
2024/01/11 13:27:22;;;;;;;22.17;17.50;;;;;;;;;;10236472;28;20068;-52
2024/01/11 13:32:22;;;;;;;23.48;17.25;;;;;;;;;;10234813;28;20081;-54
2024/01/11 13:37:21;;;;;;;28.45;19.45;;;;;;;;;;10232973;28;20068;-54
2024/01/11 13:42:19;;;;;;;33.70;21.33;;;;;;;;;;10240432;28;20072;-53
2024/01/11 13:47:18;;;;;;;28.77;20.02;;;;;;;;;;10248666;28;20069;-52
2024/01/11 13:52:17;;;;;;;40.20;26.45;;;;;;;;;;10244354;28;20478;-53
2024/01/11 13:57:15;;;;;;;34.50;21.02;;;;;;;;;;10249632;28;20076;-53
2024/01/11 14:02:13;;;;;;;35.95;21.40;;;;;;;;;;10242272;28;20522;-52
2024/01/11 14:07:13;;;;;;;30.48;18.85;;;;;;;;;;10248535;28;20451;-51
2024/01/11 14:12:11;;;;;;;26.52;15.43;;;;;;;;;;10239515;28;20109;-52
2024/01/11 14:17:09;;;;;;;45.83;27.08;;;;;;;;;;10241071;28;20068;-51
2024/01/11 14:22:09;;;;;;;26.50;18.50;;;;;;;;;;10243248;28;20522;-51
2024/01/11 14:27:09;;;;;;;34.40;22.42;;;;;;;;;;10245624;28;20061;-53
2024/01/11 14:32:07;;;;;;;37.67;24.63;;;;;;;;;;10237254;28;20061;-54
2024/01/11 14:37:06;;;;;;;47.78;30.80;;;;;;;;;;10238736;28;20081;-53
2024/01/11 14:42:05;;;;;;;34.97;23.92;;;;;;;;;;10248273;28;20072;-52
2024/01/11 14:47:04;;;;;;;48.72;35.75;;;;;;;;;;10244118;28;20085;-55
2024/01/11 14:52:03;;;;;;;26.02;23.17;;;;;;;;;;10242279;28;20091;-55
2024/01/11 14:57:01;;;;;;;32.97;24.00;;;;;;;;;;10246493;28;20475;-53
2024/01/11 15:02:00;;;;;;;49.47;39.15;;;;;;;;;;10244849;28;20474;-53
2024/01/11 15:07:00;;;;;;;26.08;20.45;;;;;;;;;;10241108;28;20065;-53
2024/01/11 15:12:00;;;;;;;29.85;22.05;;;;;;;;;;10242279;28;20475;-51
2024/01/11 15:16:58;;;;;;;39.80;28.20;;;;;;;;;;10236060;28;20068;-52
2024/01/11 15:21:56;;;;;;;29.02;20.98;;;;;;;;;;10246221;28;20068;-53
2024/01/11 15:26:56;;;;;;;33.20;20.98;;;;;;;;;;10240104;28;20073;-53
2024/01/11 15:31:54;;;;;;;27.58;21.05;;;;;;;;;;10246016;28;20077;-52
2024/01/11 15:36:53;;;;;;;86.95;49.80;;;;;;;;;;10235742;28;20077;-51
2024/01/11 15:41:51;;;;;;;74.82;51.45;;;;;;;;;;10238580;28;20065;-52
2024/01/11 15:46:51;;;;;;;154.38;83.88;;;;;;;;;;10251924;28;20077;-53
2024/01/11 15:51:49;;;;;;;140.45;77.35;;;;;;;;;;10254270;28;20073;-53
2024/01/11 15:56:47;;;;;;;123.95;67.45;;;;;;;;;;10251668;28;20065;-51
2024/01/11 16:01:46;;;;;;;161.27;86.50;;;;;;;;;;10247983;28;20080;-53
2024/01/11 16:07:02;;;;;;;77.78;43.55;;;;;;;;;;10243475;28;20080;-53
2024/01/11 16:12:01;;;;;;;139.48;83.25;;;;;;;;;;10246678;28;20084;-51
2024/01/11 16:17:04;;;;;;;106.22;62.47;;;;;;;;;;10252741;28;20076;-53
2024/01/11 16:22:04;;;;;;;412.00;212.68;;;;;;;;;;10249938;28;20068;-55
2024/01/11 16:27:04;;;;;;;139.75;84.68;;;;;;;;;;10253016;28;20073;-52
2024/01/11 16:32:02;;;;;;;68.40;46.72;;;;;;;;;;10250561;28;20076;-55
2024/01/11 16:37:01;;;;;;;68.20;43.88;;;;;;;;;;10250357;28;20603;-53
2024/01/11 16:42:00;;;;;;;58.78;35.35;;;;;;;;;;10245064;28;20068;-55
2024/01/11 16:46:59;;;;;;;51.67;32.38;;;;;;;;;;10234037;28;20073;-54
2024/01/11 16:51:57;;;;;;;402.70;198.60;;;;;;;;;;10238996;28;20116;-55
2024/01/11 16:56:55;;;;;;;145.18;74.90;;;;;;;;;;10244466;28;20073;-55
2024/01/11 17:01:55;;;;;;;532.45;248.27;;;;;;;;;;10244408;28;20068;-55
2024/01/11 17:06:55;;;;;;;398.50;183.70;;;;;;;;;;10239851;28;20553;-55
2024/01/11 17:11:53;;;;;;;138.90;62.05;;;;;;;;;;10241360;28;20084;-54
2024/01/11 17:16:52;;;;;;;372.90;162.38;;;;;;;;;;10244814;28;20633;-56
2024/01/11 17:21:52;;;;;;;223.07;90.95;;;;;;;;;;10244809;28;20352;-55
2024/01/11 17:26:50;;;;;;;86.88;40.33;;;;;;;;;;10243943;28;20062;-54
2024/01/11 17:31:48;;;;;;;388.65;162.02;;;;;;;;;;10242501;28;20061;-53
2024/01/11 17:36:46;;;;;;;306.85;128.90;;;;;;;;;;10251510;28;20076;-53
2024/01/11 17:41:46;;;;;;;189.88;91.18;;;;;;;;;;10246784;28;20095;-55
2024/01/11 17:46:45;;;;;;;116.65;60.53;;;;;;;;;;10246037;28;20099;-56
2024/01/11 17:51:43;;;;;;;85.60;51.30;;;;;;;;;;10228248;28;20529;-55
2024/01/11 17:56:41;;;;;;;100.43;63.25;;;;;;;;;;10237729;28;20064;-52
2024/01/11 18:01:41;;;;;;;81.90;50.75;;;;;;;;;;10241247;28;20089;-54
2024/01/11 18:06:39;;;;;;;50.63;34.53;;;;;;;;;;10235715;28;20068;-54
2024/01/11 18:11:38;;;;;;;31.42;21.60;;;;;;;;;;10238186;28;20072;-52
2024/01/11 18:16:36;;;;;;;29.60;17.95;;;;;;;;;;10243887;28;20099;-55
2024/01/11 18:21:36;;;;;;;23.58;18.48;;;;;;;;;;10244299;28;20482;-54
2024/01/11 18:26:34;;;;;;;47.35;33.50;;;;;;;;;;10242824;28;20103;-54
2024/01/11 18:31:33;;;;;;;29.38;18.70;;;;;;;;;;10242042;28;20076;-53
2024/01/11 18:36:31;;;;;;;29.70;18.80;;;;;;;;;;10242980;28;20068;-55
2024/01/11 18:41:31;;;;;;;40.42;24.23;;;;;;;;;;10241036;28;20084;-53
2024/01/11 18:46:29;;;;;;;23.67;18.73;;;;;;;;;;10241267;28;20084;-52
2024/01/11 18:51:27;;;;;;;24.42;17.17;;;;;;;;;;10227801;28;20081;-52
2024/01/11 18:56:27;;;;;;;30.77;20.15;;;;;;;;;;10250306;28;20064;-52
2024/01/11 19:01:28;;;;;;;33.38;20.77;;;;;;;;;;10244526;28;20069;-53
2024/01/11 19:06:27;;;;;;;17.65;12.82;;;;;;;;;;10249259;28;20072;-54
2024/01/11 19:11:25;;;;;;;19.23;14.05;;;;;;;;;;10233538;28;20064;-54
2024/01/11 19:16:24;;;;;;;18.20;13.70;;;;;;;;;;10247023;28;20081;-52
2024/01/11 19:21:23;;;;;;;17.13;12.85;;;;;;;;;;10252622;28;20107;-54
2024/01/11 19:26:22;;;;;;;16.55;10.93;;;;;;;;;;10253709;28;20076;-59
2024/01/11 19:31:21;;;;;;;19.23;14.27;;;;;;;;;;10256807;28;20073;-60
2024/01/11 19:36:19;;;;;;;17.27;11.57;;;;;;;;;;10244512;28;20075;-61
2024/01/11 19:41:22;;;;;;;13.10;10.55;;;;;;;;;;10251525;28;20494;-60
2024/01/11 19:46:21;;;;;;;11.45;8.48;;;;;;;;;;10241665;28;20494;-61
2024/01/11 19:51:19;;;;;;;11.75;9.70;;;;;;;;;;10244011;28;20068;-61
2024/01/11 19:56:17;;;;;;;15.52;10.20;;;;;;;;;;10257372;28;20465;-60
2024/01/11 20:01:17;;;;;;;18.73;13.15;;;;;;;;;;10256143;28;20083;-59
2024/01/11 20:06:16;;;;;;;18.55;13.85;;;;;;;;;;10241032;28;20060;-61
2024/01/11 20:11:14;;;;;;;15.00;11.65;;;;;;;;;;10240873;28;20065;-61
2024/01/11 20:16:12;;;;;;;17.23;13.30;;;;;;;;;;10240369;28;20068;-61
2024/01/11 20:21:12;;;;;;;16.30;12.10;;;;;;;;;;10231888;28;20510;-60
2024/01/11 20:26:12;;;;;;;11.65;9.63;;;;;;;;;;10231047;28;20072;-60
2024/01/11 20:31:10;;;;;;;14.55;10.32;;;;;;;;;;10234105;28;20182;-60
2024/01/11 20:36:09;;;;;;;14.77;11.35;;;;;;;;;;10242031;28;20475;-61
2024/01/11 20:41:09;;;;;;;20.88;14.73;;;;;;;;;;10233953;28;20527;-61
2024/01/11 20:46:07;;;;;;;13.70;11.43;;;;;;;;;;10246065;28;20096;-61
2024/01/11 20:51:07;;;;;;;18.00;12.10;;;;;;;;;;10240559;28;20072;-61
2024/01/11 20:56:06;;;;;;;12.32;9.70;;;;;;;;;;10240373;28;20553;-61
2024/01/11 21:01:06;;;;;;;18.35;12.65;;;;;;;;;;10244457;28;20084;-61
2024/01/11 21:06:04;;;;;;;14.85;12.15;;;;;;;;;;10230931;28;20539;-61
2024/01/11 21:11:03;;;;;;;26.42;17.27;;;;;;;;;;10238069;28;20073;-61
2024/01/11 21:16:02;;;;;;;34.25;21.92;;;;;;;;;;10247826;28;20167;-61
2024/01/11 21:21:02;;;;;;;38.15;27.48;;;;;;;;;;10242485;28;20077;-61
2024/01/11 21:26:00;;;;;;;25.23;18.90;;;;;;;;;;10246758;28;20508;-61
2024/01/11 21:30:59;;;;;;;24.63;19.35;;;;;;;;;;10243098;28;20703;-58
2024/01/11 21:35:57;;;;;;;22.48;16.95;;;;;;;;;;10244939;28;20081;-60
2024/01/11 21:40:57;;;;;;;32.40;21.05;;;;;;;;;;10243184;28;20076;-59
2024/01/11 21:45:55;;;;;;;21.63;13.45;;;;;;;;;;10239652;28;20079;-61
2024/01/11 21:50:54;;;;;;;39.63;25.08;;;;;;;;;;10244378;28;20072;-60
2024/01/11 21:55:52;;;;;;;25.40;19.65;;;;;;;;;;10244130;28;20069;-60
2024/01/11 22:00:52;;;;;;;28.77;19.10;;;;;;;;;;10241905;28;20077;-60
2024/01/11 22:05:51;;;;;;;26.48;17.90;;;;;;;;;;10234033;28;20080;-60
2024/01/11 22:10:51;;;;;;;26.50;17.75;;;;;;;;;;10247783;28;20072;-59
2024/01/11 22:15:49;;;;;;;20.08;14.35;;;;;;;;;;10247942;28;20471;-58
2024/01/11 22:20:49;;;;;;;22.42;15.25;;;;;;;;;;10247284;28;20073;-59
2024/01/11 22:25:47;;;;;;;21.92;15.25;;;;;;;;;;10242615;28;20081;-60
2024/01/11 22:30:45;;;;;;;22.80;17.17;;;;;;;;;;10238229;28;20072;-61
2024/01/11 22:35:44;;;;;;;18.10;13.02;;;;;;;;;;10235950;28;20069;-60
2024/01/11 22:40:44;;;;;;;18.20;13.13;;;;;;;;;;10242779;28;20069;-61
2024/01/11 22:45:42;;;;;;;16.63;12.82;;;;;;;;;;10243213;28;20097;-61
2024/01/11 22:50:40;;;;;;;20.85;13.20;;;;;;;;;;10246369;28;20099;-61
2024/01/11 22:55:39;;;;;;;31.05;20.50;;;;;;;;;;10249845;28;20390;-61
2024/01/11 23:00:39;;;;;;;21.55;15.50;;;;;;;;;;10246396;28;20068;-61
2024/01/11 23:05:37;;;;;;;25.65;14.73;;;;;;;;;;10255072;28;20061;-60
2024/01/11 23:10:37;;;;;;;26.80;17.60;;;;;;;;;;10254147;28;20203;-61
2024/01/11 23:15:35;;;;;;;24.23;14.95;;;;;;;;;;10253400;28;20467;-61
2024/01/11 23:20:34;;;;;;;25.90;19.08;;;;;;;;;;10252698;28;20076;-61
2024/01/11 23:25:33;;;;;;;26.52;17.95;;;;;;;;;;10251378;28;20073;-61
2024/01/11 23:30:34;;;;;;;19.05;15.43;;;;;;;;;;10251821;28;20089;-61
2024/01/11 23:35:32;;;;;;;21.90;14.57;;;;;;;;;;10251630;28;20080;-60
2024/01/11 23:40:32;;;;;;;22.70;14.95;;;;;;;;;;10253557;28;20144;-61
2024/01/11 23:45:30;;;;;;;23.30;15.75;;;;;;;;;;10249315;28;20088;-61
2024/01/11 23:50:28;;;;;;;23.15;15.02;;;;;;;;;;10250252;28;20088;-61
2024/01/11 23:55:27;;;;;;;20.20;14.20;;;;;;;;;;10250825;28;20072;-61
